Time;durP1;ratioP1;P1;durP2;ratioP2;P2;SDS_P1;SDS_P2;PMS_P1;PMS_P2;Temp;Humidity;BMP_temperature;BMP_pressure;BME280_temperature;BME280_humidity;BME280_pressure;Samples;Min_cycle;Max_cycle;Signal;HPM_P1;HPM_P2
2021/07/06 00:02:20;;;;;;;3.47;1.73;;;17.50;68.30;;;;;;5026174;28;20025;-80
2021/07/06 00:04:48;;;;;;;4.93;1.42;;;17.40;68.40;;;;;;5042725;28;20494;-80
2021/07/06 00:07:17;;;;;;;3.53;1.65;;;17.40;68.60;;;;;;5042737;28;20064;-78
2021/07/06 00:09:43;;;;;;;6.28;2.13;;;17.30;68.80;;;;;;5027604;28;20037;-78
2021/07/06 00:12:09;;;;;;;7.40;1.73;;;17.30;68.90;;;;;;5027193;28;20419;-80
2021/07/06 00:14:34;;;;;;;4.60;1.85;;;17.30;69.10;;;;;;5026033;28;20025;-79
2021/07/06 00:17:00;;;;;;;6.68;2.60;;;17.20;69.10;;;;;;5026238;28;20053;-81
2021/07/06 00:19:26;;;;;;;6.30;1.60;;;17.20;69.30;;;;;;5025842;28;20058;-82
2021/07/06 00:21:52;;;;;;;3.33;1.65;;;17.10;69.50;;;;;;5026026;28;20055;-80
2021/07/06 00:24:18;;;;;;;5.30;2.13;;;17.20;69.70;;;;;;5027290;28;20479;-81
2021/07/06 00:26:43;;;;;;;6.10;1.52;;;17.20;69.90;;;;;;5026063;28;20053;-79
2021/07/06 00:29:09;;;;;;;5.75;1.77;;;17.10;70.00;;;;;;5026055;28;20383;-78
2021/07/06 00:31:35;;;;;;;2.55;1.73;;;17.10;70.20;;;;;;5025858;28;20025;-80
2021/07/06 00:34:00;;;;;;;7.07;2.17;;;17.10;70.40;;;;;;5025805;28;20068;-80
2021/07/06 00:36:26;;;;;;;8.18;2.08;;;17.00;70.40;;;;;;5042326;28;20395;-80
2021/07/06 00:38:52;;;;;;;4.50;1.90;;;17.00;70.70;;;;;;5025881;28;20064;-79
2021/07/06 00:41:17;;;;;;;4.90;2.17;;;17.00;70.90;;;;;;5025663;28;20025;-78
2021/07/06 00:43:43;;;;;;;2.88;2.15;;;16.90;71.00;;;;;;5025706;28;20429;-80
2021/07/06 00:46:09;;;;;;;7.68;2.38;;;16.90;71.30;;;;;;5027086;28;20028;-79
2021/07/06 00:48:35;;;;;;;4.47;1.98;;;16.80;71.50;;;;;;5025836;28;20030;-79
2021/07/06 00:51:01;;;;;;;3.72;1.63;;;16.80;71.70;;;;;;5026950;28;20369;-80
2021/07/06 00:53:27;;;;;;;2.95;1.88;;;16.70;71.90;;;;;;5042462;28;20033;-77
2021/07/06 00:55:55;;;;;;;7.25;2.00;;;16.70;72.20;;;;;;5027782;28;20054;-81
2021/07/06 00:58:21;;;;;;;4.82;1.85;;;16.60;72.40;;;;;;5029436;28;20037;-80
2021/07/06 01:00:47;;;;;;;3.15;1.58;;;16.60;72.60;;;;;;5045612;28;20033;-79
2021/07/06 01:03:13;;;;;;;4.22;2.00;;;16.60;72.90;;;;;;5029221;28;20395;-79
2021/07/06 01:05:39;;;;;;;6.85;2.42;;;16.60;73.20;;;;;;5029098;28;20032;-78
2021/07/06 01:08:09;;;;;;;9.05;2.25;;;16.50;73.50;;;;;;5030293;28;20101;-79
2021/07/06 01:10:36;;;;;;;8.30;2.38;;;16.50;73.90;;;;;;5030215;28;20028;-80
2021/07/06 01:13:04;;;;;;;6.63;2.30;;;16.50;74.00;;;;;;5030115;28;20547;-80
2021/07/06 01:15:31;;;;;;;4.60;2.10;;;16.40;74.20;;;;;;5029143;28;20037;-78
2021/07/06 01:17:57;;;;;;;5.70;2.00;;;16.50;74.50;;;;;;5029013;28;20068;-80
2021/07/06 01:20:23;;;;;;;6.65;2.47;;;16.50;74.80;;;;;;5045393;28;20061;-81
2021/07/06 01:22:49;;;;;;;6.18;2.20;;;16.50;74.90;;;;;;5028709;28;20072;-82
2021/07/06 01:25:16;;;;;;;6.03;2.17;;;16.40;75.20;;;;;;5029991;28;20331;-81
2021/07/06 01:27:43;;;;;;;4.85;2.20;;;16.50;76.00;;;;;;5045228;28;20026;-79
2021/07/06 01:30:13;;;;;;;5.43;2.47;;;16.40;75.70;;;;;;5029972;28;20388;-80
2021/07/06 01:32:40;;;;;;;4.70;2.10;;;16.50;76.10;;;;;;5029938;28;20056;-78
2021/07/06 01:35:08;;;;;;;5.95;2.35;;;16.40;76.20;;;;;;5045383;28;20445;-77
2021/07/06 01:37:33;;;;;;;6.05;2.50;;;16.50;76.50;;;;;;5028590;28;20056;-79
2021/07/06 01:39:59;;;;;;;11.20;2.50;;;16.50;76.60;;;;;;5028439;28;20034;-78
2021/07/06 01:42:26;;;;;;;9.30;2.40;;;16.50;76.90;;;;;;5028347;28;20036;-81
2021/07/06 01:45:14;;;;;;;6.97;2.45;;;16.40;77.00;;;;;;5045091;28;20124;-80
2021/07/06 01:47:42;;;;;;;10.82;2.60;;;16.40;77.50;;;;;;5029600;28;20026;-81
2021/07/06 01:50:10;;;;;;;6.35;2.30;;;16.30;77.50;;;;;;5028318;28;20541;-80
2021/07/06 01:52:44;;;;;;;7.22;2.35;;;16.30;77.80;;;;;;5029458;28;20036;-78
2021/07/06 01:55:15;;;;;;;4.95;2.58;;;16.20;78.10;;;;;;5044917;28;20033;-80
2021/07/06 01:57:42;;;;;;;6.18;2.42;;;16.20;78.40;;;;;;5028279;28;20021;-77
2021/07/06 02:00:13;;;;;;;6.47;3.38;;;16.20;78.70;;;;;;5028129;28;20100;-80
2021/07/06 02:02:39;;;;;;;8.55;2.85;;;16.10;79.10;;;;;;5029279;28;20033;-79
2021/07/06 02:06:00;;;;;;;7.18;3.20;;;16.10;79.30;;;;;;5044616;28;20109;-80
2021/07/06 02:08:27;;;;;;;5.85;2.65;;;16.00;79.80;;;;;;5029356;28;20028;-77
2021/07/06 02:10:54;;;;;;;6.97;2.60;;;16.00;79.70;;;;;;5044533;28;20333;-79
2021/07/06 02:13:23;;;;;;;12.75;2.97;;;16.00;80.10;;;;;;5027829;28;20530;-80
2021/07/06 02:15:51;;;;;;;6.53;2.13;;;16.00;80.40;;;;;;5044430;28;20080;-77
2021/07/06 02:18:19;;;;;;;7.30;2.85;;;15.90;80.50;;;;;;5044265;28;20049;-78
2021/07/06 02:20:46;;;;;;;7.20;2.70;;;15.90;80.90;;;;;;5029115;28;20026;-79
2021/07/06 02:23:13;;;;;;;6.60;2.72;;;15.80;81.10;;;;;;5044193;28;20037;-81
2021/07/06 02:25:39;;;;;;;9.80;2.72;;;15.80;81.30;;;;;;5044222;28;20036;-77
2021/07/06 02:28:05;;;;;;;5.22;2.67;;;15.70;81.70;;;;;;5028770;28;20022;-79
2021/07/06 02:30:30;;;;;;;7.28;2.88;;;15.70;82.00;;;;;;5027597;28;20036;-80
2021/07/06 02:32:56;;;;;;;7.03;2.80;;;15.70;82.30;;;;;;5027362;28;20040;-81
2021/07/06 02:35:26;;;;;;;9.52;2.83;;;15.70;82.70;;;;;;5028745;28;20026;-80
2021/07/06 02:37:52;;;;;;;6.47;2.95;;;15.60;82.80;;;;;;5028779;28;20038;-80
2021/07/06 02:40:18;;;;;;;5.75;2.80;;;15.60;83.10;;;;;;5027426;28;20033;-79
2021/07/06 02:42:44;;;;;;;4.38;2.88;;;15.60;83.50;;;;;;5027234;28;20468;-79
2021/07/06 02:45:12;;;;;;;5.45;2.60;;;15.60;83.80;;;;;;5043830;28;20034;-80
2021/07/06 02:47:38;;;;;;;4.35;2.55;;;15.50;84.00;;;;;;5028529;28;20049;-80
2021/07/06 02:50:06;;;;;;;8.13;3.28;;;15.50;84.20;;;;;;5043637;28;20490;-81
2021/07/06 02:52:32;;;;;;;5.90;3.03;;;15.40;84.50;;;;;;5027071;28;20120;-80
2021/07/06 02:54:58;;;;;;;7.03;2.72;;;15.40;84.80;;;;;;5027109;28;20466;-78
2021/07/06 02:57:36;;;;;;;8.05;2.90;;;15.40;85.20;;;;;;5043679;28;20110;-80
2021/07/06 03:00:14;;;;;;;5.53;3.08;;;15.40;85.80;;;;;;5043619;28;20025;-80
2021/07/06 03:02:44;;;;;;;5.93;2.90;;;15.40;86.40;;;;;;5028083;28;20088;-80
2021/07/06 03:05:12;;;;;;;5.63;2.85;;;15.50;86.50;;;;;;5043563;28;20026;-79
2021/07/06 03:07:39;;;;;;;11.75;2.55;;;15.60;86.70;;;;;;5043449;28;20044;-79
2021/07/06 03:10:26;;;;;;;4.72;3.00;;;15.70;87.30;;;;;;5027069;28;20032;-78
2021/07/06 03:12:52;;;;;;;8.30;2.97;;;15.80;87.00;;;;;;5028159;28;20613;-80
2021/07/06 03:15:20;;;;;;;6.43;2.92;;;15.90;86.60;;;;;;5043189;28;20068;-80
2021/07/06 03:17:46;;;;;;;3.90;2.75;;;15.90;86.80;;;;;;5027299;28;20032;-80
2021/07/06 03:20:15;;;;;;;6.60;2.80;;;16.00;86.80;;;;;;5026474;28;20050;-79
2021/07/06 03:22:42;;;;;;;7.07;2.70;;;16.00;86.90;;;;;;5027814;28;20031;-77
2021/07/06 03:25:10;;;;;;;8.93;3.60;;;16.00;86.70;;;;;;5043089;28;20037;-79
2021/07/06 03:27:37;;;;;;;9.32;3.33;;;15.90;87.30;;;;;;5026557;28;20029;-79
2021/07/06 03:30:18;;;;;;;6.03;2.85;;;15.80;87.10;;;;;;5026676;28;20038;-80
2021/07/06 03:32:44;;;;;;;9.23;3.35;;;15.80;87.60;;;;;;5042854;28;20506;-80
2021/07/06 03:35:10;;;;;;;7.78;3.28;;;15.70;87.50;;;;;;5026439;28;20042;-79
2021/07/06 03:37:36;;;;;;;6.13;2.80;;;15.60;87.80;;;;;;5026468;28;20060;-79
2021/07/06 03:40:04;;;;;;;13.48;3.72;;;15.50;88.20;;;;;;5026613;28;20053;-80
2021/07/06 03:42:29;;;;;;;3.97;2.70;;;15.40;88.60;;;;;;5027751;28;20105;-80
2021/07/06 03:44:55;;;;;;;8.20;3.08;;;15.40;88.90;;;;;;5027817;28;20128;-81
2021/07/06 03:47:21;;;;;;;5.13;3.15;;;15.30;89.20;;;;;;5026410;28;20079;-81
2021/07/06 03:49:46;;;;;;;7.07;3.17;;;15.30;89.50;;;;;;5042930;28;20040;-79
2021/07/06 03:52:12;;;;;;;6.05;3.08;;;15.30;90.10;;;;;;5026085;28;20373;-80
2021/07/06 03:54:38;;;;;;;4.43;2.50;;;15.20;90.00;;;;;;5026164;28;20035;-80
2021/07/06 03:57:04;;;;;;;4.78;2.80;;;15.20;90.20;;;;;;5026098;28;20044;-80
2021/07/06 03:59:29;;;;;;;4.25;2.88;;;15.20;90.30;;;;;;5026011;28;20048;-79
2021/07/06 04:01:55;;;;;;;8.80;3.00;;;15.20;90.50;;;;;;5025929;28;20036;-80
2021/07/06 04:04:21;;;;;;;6.40;2.65;;;15.20;90.70;;;;;;5042891;28;20026;-80
2021/07/06 04:06:47;;;;;;;4.40;2.80;;;15.30;90.80;;;;;;5026175;28;20087;-81
2021/07/06 04:09:13;;;;;;;6.60;3.05;;;15.40;90.90;;;;;;5026356;28;20380;-82
2021/07/06 04:11:39;;;;;;;7.35;3.22;;;15.50;90.90;;;;;;5026064;28;20064;-80
2021/07/06 04:14:05;;;;;;;7.00;3.22;;;15.60;90.90;;;;;;5026169;28;20048;-79
2021/07/06 04:16:31;;;;;;;6.40;3.40;;;15.70;90.90;;;;;;5026181;28;20025;-79
2021/07/06 04:18:57;;;;;;;8.25;2.80;;;15.70;90.90;;;;;;5042278;28;20058;-80
2021/07/06 04:21:23;;;;;;;4.82;2.70;;;15.80;91.00;;;;;;5026034;28;20032;-80
2021/07/06 04:23:48;;;;;;;4.53;3.13;;;15.80;90.90;;;;;;5042761;28;20022;-81
2021/07/06 04:26:14;;;;;;;10.00;3.70;;;15.90;90.90;;;;;;5027177;28;20025;-80
2021/07/06 04:28:40;;;;;;;7.63;3.80;;;15.90;91.00;;;;;;5026297;28;20033;-79
2021/07/06 04:31:06;;;;;;;7.10;3.00;;;16.00;91.00;;;;;;5029526;28;20046;-79
2021/07/06 04:33:32;;;;;;;7.03;3.30;;;16.00;91.00;;;;;;5029582;28;20048;-80
2021/07/06 04:35:58;;;;;;;5.18;3.00;;;16.00;91.00;;;;;;5030921;28;20022;-79
2021/07/06 04:38:24;;;;;;;5.15;2.70;;;16.00;91.00;;;;;;5030912;28;20026;-77
2021/07/06 04:40:50;;;;;;;4.35;2.47;;;16.00;91.00;;;;;;5030953;28;20033;-80
2021/07/06 04:43:16;;;;;;;4.95;2.88;;;16.00;91.10;;;;;;5046167;28;20036;-77
2021/07/06 04:45:41;;;;;;;6.93;3.28;;;16.00;91.20;;;;;;5029560;28;20049;-80
2021/07/06 04:48:07;;;;;;;9.85;2.78;;;16.10;91.20;;;;;;5030799;28;20030;-81
2021/07/06 04:50:36;;;;;;;6.80;3.25;;;16.10;91.20;;;;;;5029525;28;20034;-77
2021/07/06 04:53:03;;;;;;;8.53;2.60;;;16.10;91.30;;;;;;5029568;28;20033;-80
2021/07/06 04:55:29;;;;;;;6.70;2.80;;;16.10;91.30;;;;;;5030399;28;20045;-81
2021/07/06 04:57:54;;;;;;;7.05;3.28;;;16.10;91.30;;;;;;5045812;28;20041;-79
2021/07/06 05:00:20;;;;;;;4.53;2.67;;;16.20;91.30;;;;;;5030421;28;20038;-80
2021/07/06 05:02:47;;;;;;;5.00;2.95;;;16.20;91.30;;;;;;5029129;28;20033;-79
2021/07/06 05:05:13;;;;;;;5.75;3.00;;;16.20;91.40;;;;;;5029112;28;20025;-80
2021/07/06 05:07:39;;;;;;;6.13;2.95;;;16.20;91.40;;;;;;5029048;28;20025;-77
2021/07/06 05:10:08;;;;;;;5.60;2.50;;;16.20;91.50;;;;;;5029063;28;20033;-80
2021/07/06 05:12:34;;;;;;;5.82;2.90;;;16.20;91.60;;;;;;5030086;28;20032;-82
2021/07/06 05:15:00;;;;;;;4.47;2.90;;;16.20;91.60;;;;;;5030150;28;20043;-81
2021/07/06 05:17:25;;;;;;;3.65;2.55;;;16.20;91.60;;;;;;5030099;28;20029;-77
2021/07/06 05:19:51;;;;;;;6.78;2.80;;;16.20;91.60;;;;;;5028683;28;20396;-81
2021/07/06 05:22:17;;;;;;;7.15;2.72;;;16.20;91.70;;;;;;5028875;28;20039;-80
2021/07/06 05:24:43;;;;;;;5.90;2.70;;;16.20;91.70;;;;;;5028670;28;20025;-80
2021/07/06 05:27:08;;;;;;;7.78;3.10;;;16.30;91.80;;;;;;5028595;28;20026;-77
2021/07/06 05:29:34;;;;;;;6.20;2.80;;;16.30;91.80;;;;;;5030188;28;20029;-78
2021/07/06 05:32:01;;;;;;;5.95;2.60;;;16.40;91.80;;;;;;5028495;28;20127;-79
2021/07/06 05:34:26;;;;;;;41.33;8.73;;;16.50;91.70;;;;;;5029927;28;20071;-80
2021/07/06 05:36:53;;;;;;;11.77;2.80;;;16.50;91.60;;;;;;5028634;28;20073;-80
2021/07/06 05:39:19;;;;;;;9.23;2.88;;;16.60;91.60;;;;;;5028668;28;20025;-79
2021/07/06 05:41:45;;;;;;;15.73;3.40;;;16.60;91.60;;;;;;5043967;28;20032;-80
2021/07/06 05:44:13;;;;;;;8.30;2.97;;;16.70;91.60;;;;;;5029643;28;20021;-79
2021/07/06 05:46:39;;;;;;;5.35;1.98;;;16.80;91.50;;;;;;5044877;28;20029;-79
2021/07/06 05:49:05;;;;;;;5.88;2.20;;;16.90;91.50;;;;;;5044732;28;20075;-78
2021/07/06 05:51:30;;;;;;;12.05;3.13;;;17.20;91.40;;;;;;5044490;28;20120;-79
2021/07/06 05:53:56;;;;;;;21.20;3.15;;;17.70;90.90;;;;;;5028136;28;20543;-81
2021/07/06 05:56:22;;;;;;;10.10;2.85;;;18.10;90.30;;;;;;5044608;28;20129;-79
2021/07/06 05:58:49;;;;;;;12.32;2.38;;;18.40;89.70;;;;;;5027906;28;20392;-78
2021/07/06 06:01:15;;;;;;;8.80;1.75;;;18.50;89.20;;;;;;5029380;28;20029;-78
2021/07/06 06:03:41;;;;;;;5.57;1.60;;;18.40;88.40;;;;;;5028029;28;20022;-79
2021/07/06 06:06:08;;;;;;;5.07;2.13;;;18.40;87.90;;;;;;5044478;28;20159;-80
2021/07/06 06:08:35;;;;;;;4.15;1.50;;;18.20;87.70;;;;;;5044496;28;20026;-80
2021/07/06 06:11:05;;;;;;;3.97;1.48;;;18.10;87.60;;;;;;5027807;28;20034;-79
2021/07/06 06:13:31;;;;;;;;;;;18.00;87.70;;;;;;5045114;28;20034;-80
2021/07/06 06:15:57;;;;;;;5.50;1.33;;;18.00;87.70;;;;;;5029021;28;19942;-81
2021/07/06 06:18:23;;;;;;;2.28;1.20;;;17.90;87.60;;;;;;5029024;28;20041;-79
2021/07/06 06:20:48;;;;;;;11.30;1.60;;;17.90;87.70;;;;;;5044258;28;20040;-77
2021/07/06 06:23:14;;;;;;;2.28;1.10;;;18.00;87.80;;;;;;5028582;28;20029;-79
2021/07/06 06:25:40;;;;;;;8.30;1.90;;;18.10;87.70;;;;;;5043699;28;20050;-82
2021/07/06 06:28:07;;;;;;;9.70;1.60;;;18.40;87.60;;;;;;5044101;28;20026;-80
2021/07/06 06:30:33;;;;;;;3.08;1.30;;;18.50;86.60;;;;;;5028859;28;20036;-79
2021/07/06 06:32:59;;;;;;;4.93;1.30;;;18.60;85.70;;;;;;5028345;28;20051;-79
2021/07/06 06:35:25;;;;;;;5.20;1.30;;;18.60;85.50;;;;;;5027725;28;20052;-78
2021/07/06 06:37:51;;;;;;;6.20;1.10;;;18.60;85.30;;;;;;5028681;28;20357;-80
2021/07/06 06:40:18;;;;;;;6.57;1.50;;;18.50;85.40;;;;;;5028482;28;20104;-81
2021/07/06 06:42:43;;;;;;;8.60;1.67;;;18.50;85.40;;;;;;5028467;28;20025;-80
2021/07/06 06:45:11;;;;;;;4.47;1.35;;;18.60;85.30;;;;;;5028363;28;20036;-77
2021/07/06 06:47:38;;;;;;;4.35;1.50;;;18.70;85.00;;;;;;5043856;28;20035;-80
2021/07/06 06:50:06;;;;;;;2.90;1.45;;;18.60;85.00;;;;;;5027218;28;20116;-77
2021/07/06 06:52:32;;;;;;;3.88;1.38;;;18.60;85.10;;;;;;5027961;28;20128;-78
2021/07/06 06:54:58;;;;;;;9.57;1.77;;;18.60;85.00;;;;;;5026903;28;20030;-80
2021/07/06 06:57:25;;;;;;;6.13;1.40;;;18.40;84.60;;;;;;5028127;28;20103;-81
2021/07/06 06:59:50;;;;;;;6.97;1.77;;;18.20;84.80;;;;;;5043496;28;20034;-79
2021/07/06 07:02:17;;;;;;;6.47;1.60;;;18.10;85.20;;;;;;5026702;28;20025;-82
2021/07/06 07:04:44;;;;;;;4.38;1.40;;;18.00;85.70;;;;;;5043372;28;20091;-78
2021/07/06 07:07:10;;;;;;;5.40;2.13;;;17.90;86.00;;;;;;5043222;28;20029;-80
2021/07/06 07:09:36;;;;;;;6.65;2.30;;;17.90;86.30;;;;;;5026692;28;20485;-79
2021/07/06 07:12:02;;;;;;;11.25;1.80;;;17.90;86.60;;;;;;5026312;28;20040;-80
2021/07/06 07:14:28;;;;;;;4.18;1.40;;;17.90;86.70;;;;;;5026526;28;20033;-80
2021/07/06 07:16:54;;;;;;;7.57;1.58;;;17.90;86.80;;;;;;5043184;28;20021;-80
2021/07/06 07:19:19;;;;;;;8.52;1.85;;;18.00;87.10;;;;;;5027726;28;20509;-82
2021/07/06 07:21:46;;;;;;;6.32;1.83;;;18.10;87.20;;;;;;5026774;28;20447;-78
2021/07/06 07:24:12;;;;;;;5.43;1.50;;;18.20;87.00;;;;;;5042878;28;20033;-79
2021/07/06 07:26:38;;;;;;;9.32;1.98;;;18.70;87.30;;;;;;5026292;28;20022;-79
2021/07/06 07:29:05;;;;;;;7.22;1.50;;;19.10;86.30;;;;;;5042597;28;20040;-80
2021/07/06 07:31:31;;;;;;;4.60;1.50;;;19.80;85.70;;;;;;5026658;28;20043;-79
2021/07/06 07:33:58;;;;;;;3.83;1.05;;;20.30;83.40;;;;;;5026155;28;20029;-80
2021/07/06 07:36:24;;;;;;;7.15;1.63;;;20.30;81.60;;;;;;5027343;28;20021;-79
2021/07/06 07:38:50;;;;;;;7.97;1.58;;;20.30;80.90;;;;;;5026476;28;20491;-79
2021/07/06 07:41:16;;;;;;;4.78;1.38;;;20.10;80.40;;;;;;5026309;28;20112;-79
2021/07/06 07:43:42;;;;;;;7.95;1.80;;;19.90;80.20;;;;;;5025984;28;20029;-78
2021/07/06 07:46:07;;;;;;;10.15;1.42;;;19.80;80.40;;;;;;5042745;28;20120;-78
2021/07/06 07:48:33;;;;;;;6.22;1.45;;;19.80;80.90;;;;;;5025891;28;20037;-79
2021/07/06 07:50:59;;;;;;;10.90;1.58;;;19.90;80.80;;;;;;5042202;28;20484;-81
2021/07/06 07:53:24;;;;;;;2.35;1.10;;;19.90;80.10;;;;;;5042640;28;20034;-80
2021/07/06 07:55:53;;;;;;;6.28;2.25;;;19.90;80.00;;;;;;5027436;28;20033;-78
2021/07/06 07:58:18;;;;;;;3.35;1.23;;;19.80;80.00;;;;;;5026920;28;20026;-81
2021/07/06 08:00:44;;;;;;;10.15;1.33;;;19.90;79.90;;;;;;5025883;28;20169;-79
2021/07/06 08:03:10;;;;;;;4.88;1.35;;;19.80;79.50;;;;;;5042140;28;20026;-78
2021/07/06 08:05:35;;;;;;;3.47;1.20;;;19.70;79.70;;;;;;5045700;28;20036;-79
2021/07/06 08:08:01;;;;;;;4.80;1.10;;;19.60;79.80;;;;;;5046489;28;20052;-78
2021/07/06 08:10:27;;;;;;;4.60;1.33;;;19.50;80.00;;;;;;5031268;28;20052;-80
2021/07/06 08:12:52;;;;;;;2.80;0.90;;;19.40;80.30;;;;;;5029983;28;20037;-79
2021/07/06 08:15:19;;;;;;;3.25;1.00;;;19.30;80.60;;;;;;5029812;28;20038;-77
2021/07/06 08:17:45;;;;;;;2.60;1.08;;;19.30;80.80;;;;;;5029695;28;20404;-80
2021/07/06 08:20:11;;;;;;;6.20;1.20;;;19.30;81.10;;;;;;5030523;28;20050;-80
2021/07/06 08:22:37;;;;;;;6.28;1.30;;;19.20;81.40;;;;;;5030795;28;20029;-79
2021/07/06 08:25:04;;;;;;;2.60;0.90;;;19.20;81.90;;;;;;5030494;28;20115;-79
2021/07/06 08:27:29;;;;;;;4.32;1.02;;;19.30;82.30;;;;;;5029485;28;20091;-79
2021/07/06 08:29:55;;;;;;;12.27;1.85;;;19.40;82.40;;;;;;5029316;28;20036;-78
2021/07/06 08:32:21;;;;;;;2.53;1.05;;;19.60;82.30;;;;;;5030481;28;20109;-80
2021/07/06 08:34:47;;;;;;;3.80;1.10;;;19.70;82.20;;;;;;5029556;28;20048;-79
2021/07/06 08:37:12;;;;;;;2.33;0.70;;;19.80;81.70;;;;;;5029229;28;20029;-79
2021/07/06 08:39:38;;;;;;;1.95;0.60;;;19.80;81.30;;;;;;5029579;28;20083;-79
2021/07/06 08:42:08;;;;;;;0.55;0.40;;;19.70;81.20;;;;;;5030410;28;20113;-79
2021/07/06 08:44:36;;;;;;;1.85;1.00;;;19.70;81.50;;;;;;5045261;28;20427;-79
2021/07/06 08:47:02;;;;;;;2.22;0.60;;;19.70;81.70;;;;;;5045438;28;20078;-80
2021/07/06 08:49:29;;;;;;;11.13;2.00;;;19.80;81.80;;;;;;5045743;28;20025;-80
2021/07/06 08:51:55;;;;;;;2.33;0.47;;;19.90;81.90;;;;;;5045430;28;20097;-81
2021/07/06 08:54:21;;;;;;;2.00;0.73;;;20.00;82.00;;;;;;5029019;28;20062;-81
2021/07/06 08:56:47;;;;;;;0.90;0.43;;;20.10;81.80;;;;;;5045311;28;20395;-78
2021/07/06 08:59:13;;;;;;;1.00;0.43;;;20.20;81.40;;;;;;5028870;28;20033;-83
2021/07/06 09:01:40;;;;;;;0.30;0.30;;;20.30;80.90;;;;;;5028768;28;20041;-78
2021/07/06 09:04:06;;;;;;;2.20;1.40;;;20.20;80.70;;;;;;5028524;28;20025;-79
2021/07/06 09:06:53;;;;;;;1.02;0.32;;;20.20;80.50;;;;;;5029972;28;20021;-81
2021/07/06 09:09:24;;;;;;;1.67;0.82;;;20.20;80.60;;;;;;5030037;28;20035;-78
2021/07/06 09:11:53;;;;;;;1.40;0.60;;;20.10;80.70;;;;;;5029721;28;20068;-79
2021/07/06 09:14:20;;;;;;;2.55;0.77;;;20.20;81.30;;;;;;5029796;28;20029;-80
2021/07/06 09:16:47;;;;;;;1.27;0.50;;;20.40;81.10;;;;;;5043762;28;20498;-78
2021/07/06 09:19:17;;;;;;;3.28;0.60;;;20.70;80.90;;;;;;5044835;28;20250;-79
2021/07/06 09:21:44;;;;;;;2.92;0.50;;;21.00;79.60;;;;;;5030596;28;20132;-79
2021/07/06 09:24:24;;;;;;;0.40;0.20;;;21.20;78.90;;;;;;5030315;28;20128;-79
2021/07/06 09:26:51;;;;;;;2.90;0.60;;;21.30;78.20;;;;;;5031564;28;20030;-79
2021/07/06 09:29:22;;;;;;;1.50;0.60;;;21.50;78.70;;;;;;5031392;28;20375;-77
2021/07/06 09:31:48;;;;;;;10.23;2.03;;;22.30;78.80;;;;;;5046747;28;20495;-78
2021/07/06 09:34:14;;;;;;;1.33;0.73;;;22.70;76.70;;;;;;5029561;28;20048;-77
2021/07/06 09:36:48;;;;;;;1.30;0.70;;;22.90;75.50;;;;;;5031485;28;20715;-78
2021/07/06 09:39:18;;;;;;;0.60;0.50;;;23.00;74.70;;;;;;5031153;28;20445;-80
2021/07/06 09:41:52;;;;;;;1.50;0.70;;;23.00;74.00;;;;;;5030747;28;20052;-82
2021/07/06 09:44:24;;;;;;;0.85;0.55;;;22.80;73.60;;;;;;5011504;28;20081;-80
2021/07/06 09:47:02;;;;;;;0.47;0.17;;;22.50;73.60;;;;;;5029490;28;20025;-81
2021/07/06 09:49:33;;;;;;;1.45;0.85;;;22.20;73.70;;;;;;5045483;28;20025;-82
2021/07/06 09:52:14;;;;;;;3.33;0.95;;;22.00;74.30;;;;;;5045421;28;20435;-79
2021/07/06 09:54:45;;;;;;;2.75;1.33;;;21.80;74.90;;;;;;5045700;28;20062;-81
2021/07/06 09:59:59;;;;;;;;;;;21.70;75.00;;;;;;5030784;28;20036;-79
2021/07/06 10:02:27;;;;;;;0.77;0.38;;;21.70;75.20;;;;;;5030650;28;19959;-79
2021/07/06 10:04:54;;;;;;;1.88;0.40;;;21.60;75.30;;;;;;5030316;28;20022;-78
2021/07/06 10:07:22;;;;;;;5.07;2.30;;;21.70;75.70;;;;;;5046072;28;20030;-80
2021/07/06 10:09:49;;;;;;;4.63;3.15;;;21.70;76.00;;;;;;5045689;28;20163;-78
2021/07/06 10:12:16;;;;;;;9.20;2.63;;;21.60;76.40;;;;;;5030347;28;20105;-77
2021/07/06 10:14:43;;;;;;;5.22;3.00;;;21.30;77.00;;;;;;5029562;28;20084;-81
2021/07/06 10:17:10;;;;;;;1.35;0.55;;;21.10;78.00;;;;;;5030786;28;20018;-78
2021/07/06 10:19:40;;;;;;;0.65;0.30;;;20.90;78.80;;;;;;5045456;28;20045;-79
2021/07/06 10:22:07;;;;;;;1.67;0.75;;;20.90;79.30;;;;;;5029529;28;20030;-80
2021/07/06 10:24:51;;;;;;;3.13;1.58;;;20.90;80.00;;;;;;5030480;28;20476;-79
2021/07/06 10:27:22;;;;;;;5.60;1.73;;;20.90;80.50;;;;;;5029124;28;20095;-78
2021/07/06 10:30:04;;;;;;;10.35;3.00;;;20.80;80.80;;;;;;5030664;28;20066;-80
2021/07/06 10:32:59;;;;;;;1.73;0.98;;;20.80;81.30;;;;;;5045583;28;20033;-80
2021/07/06 10:35:40;;;;;;;1.55;0.85;;;20.80;81.60;;;;;;5044338;28;20395;-78
2021/07/06 10:41:05;;;;;;;6.93;3.95;;;20.50;82.50;;;;;;5030395;28;20112;-78
2021/07/06 10:43:42;;;;;;;4.57;1.67;;;20.40;83.40;;;;;;5045316;28;20608;-78
2021/07/06 10:46:20;;;;;;;7.40;1.95;;;20.40;83.90;;;;;;5045252;28;20033;-80
2021/07/06 10:49:07;;;;;;;1.88;1.00;;;20.40;84.50;;;;;;5029304;28;20045;-81
2021/07/06 10:51:38;;;;;;;1.23;0.77;;;20.40;85.00;;;;;;5029650;28;20112;-78
2021/07/06 10:54:11;;;;;;;5.25;1.02;;;20.50;86.10;;;;;;5030066;28;20091;-77
2021/07/06 10:56:46;;;;;;;5.75;2.35;;;20.70;86.70;;;;;;5045236;28;20036;-78
2021/07/06 10:59:26;;;;;;;1.83;1.00;;;20.80;86.50;;;;;;5044701;28;20094;-68
2021/07/06 11:01:58;;;;;;;11.60;3.80;;;20.60;86.40;;;;;;5015424;28;20054;-77
2021/07/06 11:04:39;;;;;;;1.83;0.82;;;20.50;86.70;;;;;;5030019;28;20044;-78
2021/07/06 11:07:13;;;;;;;4.35;0.75;;;20.40;87.30;;;;;;5045040;28;20053;-81
2021/07/06 11:09:39;;;;;;;1.52;0.75;;;20.30;87.60;;;;;;5029666;28;20055;-78
2021/07/06 11:12:30;;;;;;;4.63;0.88;;;20.20;88.30;;;;;;5044941;28;20075;-78
2021/07/06 11:15:01;;;;;;;2.15;1.00;;;20.10;89.10;;;;;;5045144;28;20025;-79
2021/07/06 11:17:40;;;;;;;9.07;2.05;;;20.10;89.50;;;;;;5045290;28;20025;-79
2021/07/06 11:20:14;;;;;;;11.77;3.10;;;20.10;90.20;;;;;;5044691;28;20508;-78
2021/07/06 11:22:45;;;;;;;1.90;0.70;;;20.30;90.60;;;;;;5014407;28;20440;-78
2021/07/06 11:25:27;;;;;;;3.17;0.77;;;20.80;90.90;;;;;;5029420;28;20411;-81
2021/07/06 11:27:57;;;;;;;1.92;0.93;;;21.20;90.60;;;;;;5029163;28;20024;-77
2021/07/06 11:30:27;;;;;;;3.92;1.50;;;21.50;90.30;;;;;;5044938;28;20063;-78
2021/07/06 11:33:14;;;;;;;1.92;1.08;;;21.60;89.70;;;;;;5045040;28;20025;-78
2021/07/06 11:35:41;;;;;;;9.15;3.55;;;21.60;88.70;;;;;;5046347;28;20060;-79
2021/07/06 11:38:22;;;;;;;2.90;1.80;;;21.40;88.10;;;;;;5028514;28;20033;-78
2021/07/06 11:40:50;;;;;;;1.45;0.93;;;21.20;88.40;;;;;;5029120;28;20571;-79
2021/07/06 11:43:18;;;;;;;1.25;0.52;;;21.10;88.60;;;;;;5030349;28;20025;-77
2021/07/06 11:45:55;;;;;;;1.75;0.77;;;20.90;88.70;;;;;;5045672;28;20025;-77
2021/07/06 11:48:23;;;;;;;0.90;0.60;;;20.70;89.00;;;;;;5029074;28;20029;-78
2021/07/06 11:50:49;;;;;;;3.35;0.90;;;20.70;89.20;;;;;;5030517;28;20032;-78
2021/07/06 11:53:22;;;;;;;7.65;1.35;;;20.60;89.40;;;;;;5045139;28;20034;-78
2021/07/06 11:55:48;;;;;;;8.68;2.78;;;20.40;90.00;;;;;;5045139;28;20041;-81
2021/07/06 11:58:19;;;;;;;5.78;2.28;;;20.20;90.70;;;;;;5027000;28;20026;-80
2021/07/06 12:00:45;;;;;;;4.22;1.50;;;20.00;90.90;;;;;;5015812;28;20036;-79
2021/07/06 12:03:20;;;;;;;1.63;1.10;;;19.70;91.60;;;;;;5029547;28;20025;-82
2021/07/06 12:05:48;;;;;;;2.55;0.98;;;19.60;92.40;;;;;;5045426;28;20021;-80
2021/07/06 12:08:16;;;;;;;1.20;0.90;;;19.70;93.00;;;;;;5029510;28;20441;-82
2021/07/06 12:10:58;;;;;;;4.22;0.93;;;19.90;93.60;;;;;;5044777;28;20087;-81
2021/07/06 12:13:26;;;;;;;3.85;1.65;;;20.20;94.00;;;;;;5029749;28;20461;-80
2021/07/06 12:15:55;;;;;;;1.35;0.90;;;20.60;93.90;;;;;;5028399;28;20041;-79
2021/07/06 12:18:21;;;;;;;1.48;0.80;;;21.00;93.90;;;;;;5044471;28;20124;-78
2021/07/06 12:20:56;;;;;;;3.15;1.05;;;21.30;93.50;;;;;;5027978;28;20038;-81
2021/07/06 12:23:22;;;;;;;4.20;1.80;;;21.40;93.00;;;;;;5027905;28;20144;-78
2021/07/06 12:25:48;;;;;;;4.35;1.95;;;21.50;92.60;;;;;;5030075;28;20049;-80
2021/07/06 12:28:18;;;;;;;3.42;0.98;;;21.40;92.50;;;;;;5024206;28;20461;-80
2021/07/06 12:30:44;;;;;;;2.45;1.27;;;21.30;92.70;;;;;;5043941;28;20037;-77
2021/07/06 12:33:09;;;;;;;1.77;1.08;;;21.20;92.40;;;;;;5028268;28;20038;-80
2021/07/06 12:35:36;;;;;;;4.05;1.40;;;21.00;92.30;;;;;;5029058;28;20038;-79
2021/07/06 12:38:03;;;;;;;3.58;1.08;;;20.90;92.50;;;;;;5028429;28;20519;-81
2021/07/06 12:40:30;;;;;;;2.63;1.50;;;20.80;92.90;;;;;;5028846;28;20029;-79
2021/07/06 12:42:57;;;;;;;2.03;1.13;;;20.90;93.20;;;;;;5043350;28;20037;-80
2021/07/06 12:45:30;;;;;;;1.27;0.80;;;21.20;93.50;;;;;;5028436;28;20022;-79
2021/07/06 12:47:56;;;;;;;1.70;0.95;;;21.80;94.00;;;;;;5028380;28;20033;-78
2021/07/06 12:50:24;;;;;;;1.30;1.02;;;22.60;93.40;;;;;;5030043;28;20029;-79
2021/07/06 12:52:51;;;;;;;2.03;1.10;;;23.30;92.70;;;;;;5031014;28;20057;-71
2021/07/06 12:55:20;;;;;;;1.85;0.90;;;24.10;92.30;;;;;;5031639;28;20595;-79
2021/07/06 12:57:47;;;;;;;3.15;1.00;;;24.90;91.40;;;;;;5046262;28;20109;-76